CheckWX is a tool to help pilots better visualize weather data.  It is not intended as a substitute for an official pre-flight weather briefing.

04:40:30 UTC

RJNS TAF
Mt. Fuji Shizuoka Airport
Makinohara / Shimada, Japan
TAF RJNS 222305Z 2300/2406 16006KT 9999 FEW020 SCT040 BECMG 2304/2306 27016KT TEMPO 2306/2310 27020G30KT TEMPO 2400/2406 27022G32KT

Mar-23@
00:00 UTC

Mar-23 @ 00:00 UTC

Mar-23@
04:00 UTC

Mar-23 @ 04:00 UTC

TAF RJNS 222305Z 2300/2406 16006KT 9999 FEW020 SCT040

Expired

Wind
  • 160° at 6 KTS
Cloud Levels
  • Few at 2,000' AGL
  • Scattered at 4,000' AGL

Mar-23@
04:00 UTC

Mar-23 @ 04:00 UTC

Mar-24@
06:00 UTC

Mar-24 @ 06:00 UTC

BECMG 2304/2306 27016KT

Becoming

Becoming Conditions expected by Sat, Mar 23, 2019 @ 06:00 UTC

Wind
  • 270° at 16 KTS
Cloud Levels
  • Few at 2,000' AGL
  • Scattered at 4,000' AGL

Mar-23@
06:00 UTC

Mar-23 @ 06:00 UTC

Mar-23@
10:00 UTC

Mar-23 @ 10:00 UTC

TEMPO 2306/2310 27020G30KT

Temporary

Temporary Changes expected for less than half the time period

Wind
  • 270° at 20 KTS
  • {Gusting to 30 KTS

Mar-24@
00:00 UTC

Mar-24 @ 00:00 UTC

Mar-24@
06:00 UTC

Mar-24 @ 06:00 UTC

TEMPO 2400/2406 27022G32KT

Temporary

Temporary Changes expected for less than half the time period

Wind
  • 270° at 22 KTS
  • {Gusting to 32 KTS